Lammy — PBRE — position and weather

sailwx.info

Track history (hours):
 
Tides and Currents Weather Stations Pressure Air Temp Water Temp Dewpoint Dewpoint Depression Visibility Wind Speed Wind Dir Waves Ship Positions

Lammy

Last reported at 2017-Apr-24 13:28 UTC. Time now 2017-Apr-25 14:33 UTC.
Position N 55°37' E 015°24'.

Length 95 m; draft 4.1 m.

Type: Cargo ship. MMSI: 245391000.

Date/timePositionNaut miles runAvg speedWind from/ knotsBaromVisibWave heightAir tempDewpointWater temp
2017-Apr-24 13:28N 55°37' E 015°24'511.6
2017-Apr-24 13:00N 55°34' E 015°16'711.8
2017-Apr-24 12:26N 55°31' E 015°06'511.7
2017-Apr-24 12:00N 55°28' E 014°58'611.8
2017-Apr-24 11:30N 55°25' E 014°49'611.7
2017-Apr-24 11:00N 55°23' E 014°40'611.9
2017-Apr-24 10:30N 55°18' E 014°33'611.7
2017-Apr-24 10:00N 55°14' E 014°27'611.6
2017-Apr-24 09:30N 55°09' E 014°20'612.2
2017-Apr-24 09:00N 55°05' E 014°13'611.8
2017-Apr-24 08:30N 55°01' E 014°05'611.4
2017-Apr-24 07:57N 54°58' E 013°55'4611.8
2017-Apr-24 04:01N 54°39' E 012°42'011.9
2017-Apr-24 04:00N 54°39' E 012°41'611.8
2017-Apr-24 03:30N 54°36' E 012°32'1511.8
2017-Apr-24 02:14N 54°27' E 012°13'511.1
2017-Apr-24 01:47N 54°25' E 012°05'312.0
2017-Apr-24 01:30N 54°25' E 011°59'612.4
2017-Apr-24 01:00N 54°25' E 011°48'712.4
2017-Apr-24 00:28N 54°27' E 011°38'612.4
2017-Apr-24 00:00N 54°30' E 011°29'612.2
2017-Apr-23 23:30N 54°32' E 011°19'612.3
2017-Apr-23 23:00N 54°34' E 011°09'612.0
2017-Apr-23 22:30N 54°34' E 010°59'611.7
2017-Apr-23 22:00N 54°33' E 010°49'611.8
2017-Apr-23 21:30N 54°32' E 010°39'53 5.7
2017-Apr-23 12:16N 54°06' E 009°20'2 8.5
2017-Apr-23 12:00N 54°03' E 009°19'4 8.7
2017-Apr-23 11:30N 53°59' E 009°17'4 8.6
2017-Apr-23 11:00N 53°56' E 009°13'3 6.5
2017-Apr-23 10:31N 53°54' E 009°09'0 0.0
2017-Apr-23 10:00N 53°54' E 009°09'0 0.0
2017-Apr-23 09:30N 53°54' E 009°09'0 0.8
2017-Apr-23 09:00N 53°53' E 009°08'2 3.8
2017-Apr-23 08:31N 53°53' E 009°05'0 0.4
2017-Apr-23 08:01N 53°53' E 009°06'510.6
2017-Apr-23 07:31N 53°51' E 008°57'714.8
2017-Apr-23 07:00N 53°51' E 008°45'815.4
2017-Apr-23 06:29N 53°58' E 008°36'613.1
2017-Apr-23 06:00N 53°59' E 008°25'25310.1
2017-Apr-22 04:50N 51°50' E 002°23'310.4
2017-Apr-22 04:30N 51°48' E 002°19'510.4
2017-Apr-22 03:59N 51°44' E 002°13'510.4
2017-Apr-22 03:30N 51°40' E 002°07'510.6
2017-Apr-22 03:00N 51°37' E 002°02'510.8
2017-Apr-22 02:30N 51°33' E 001°56'611.4
2017-Apr-22 02:00N 51°28' E 001°49'611.6
2017-Apr-22 01:30N 51°23' E 001°45'611.7
2017-Apr-22 01:00N 51°18' E 001°40'611.7
2017-Apr-22 00:31N 51°13' E 001°36'611.7
2017-Apr-22 00:00N 51°08' E 001°30'612.0
2017-Apr-21 23:30N 51°05' E 001°23'612.2
2017-Apr-21 23:00N 51°01' E 001°15'612.2
2017-Apr-21 22:29N 50°57' E 001°07'612.0
2017-Apr-21 22:00N 50°53' E 001°00'612.0
2017-Apr-21 21:30N 50°50' E 000°52'611.9
2017-Apr-21 21:00N 50°47' E 000°44'611.8
2017-Apr-21 20:30N 50°43' E 000°37'611.7
2017-Apr-21 20:00N 50°42' E 000°28'611.9
2017-Apr-21 19:30N 50°43' E 000°18'611.9
2017-Apr-21 19:00N 50°43' E 000°09'612.2
2017-Apr-21 18:30N 50°45' W 000°01'612.3
2017-Apr-21 18:00N 50°46' W 000°10'5 9.1
2017-Apr-21 17:30N 50°50' W 000°15'0 0.8
2017-Apr-21 17:00N 50°50' W 000°14'1 1.7
2017-Apr-21 16:29N 50°50' W 000°13'0 0.0
2017-Apr-21 15:59N 50°50' W 000°13'0 0.0
2017-Apr-21 15:29N 50°50' W 000°13'0 0.0
2017-Apr-21 14:56N 50°50' W 000°13'0 0.0
2017-Apr-21 14:26N 50°50' W 000°13'0 0.0
2017-Apr-21 13:29N 50°50' W 000°13'0 0.0
2017-Apr-21 12:59N 50°50' W 000°13'0 0.0
2017-Apr-21 12:29N 50°50' W 000°13'0 0.0
2017-Apr-21 11:50N 50°50' W 000°13'0 0.0
2017-Apr-21 11:26N 50°50' W 000°13'0 0.0
2017-Apr-21 10:59N 50°50' W 000°13'0 0.0
2017-Apr-21 10:26N 50°50' W 000°13'0 0.0
2017-Apr-21 09:56N 50°50' W 000°13'0 0.0
2017-Apr-21 09:26N 50°50' W 000°13'0 0.0
2017-Apr-21 08:59N 50°50' W 000°13'0 0.0
2017-Apr-21 08:29N 50°50' W 000°13'0 0.0
2017-Apr-21 07:47N 50°50' W 000°13'0 0.0
2017-Apr-21 07:29N 50°50' W 000°13'0 0.0
2017-Apr-21 06:59N 50°50' W 000°13'0 0.0
2017-Apr-21 06:26N 50°50' W 000°13'0 0.0
2017-Apr-21 05:59N 50°50' W 000°13'0 0.0
2017-Apr-21 05:29N 50°50' W 000°13'0 0.0
2017-Apr-21 04:59N 50°50' W 000°13'0 0.0
2017-Apr-21 04:29N 50°50' W 000°13'0 0.0
2017-Apr-21 03:56N 50°50' W 000°13'0 0.0
2017-Apr-21 03:26N 50°50' W 000°13'0 0.0
2017-Apr-21 02:50N 50°50' W 000°13'0 0.0
2017-Apr-21 02:29N 50°50' W 000°13'0 0.0
2017-Apr-21 01:56N 50°50' W 000°13'0 0.0
2017-Apr-21 01:29N 50°50' W 000°13'0 0.0
2017-Apr-21 00:59N 50°50' W 000°13'0 0.0
2017-Apr-21 00:26N 50°50' W 000°13'0 0.0
2017-Apr-20 23:59N 50°50' W 000°13'0 0.0
2017-Apr-20 23:23N 50°50' W 000°13'0 0.0
2017-Apr-20 22:59N 50°50' W 000°13'0 0.0
2017-Apr-20 22:26N 50°50' W 000°13'0 0.0
2017-Apr-20 21:59N 50°50' W 000°13'0 0.0
2017-Apr-20 21:23N 50°50' W 000°13'0 0.0
2017-Apr-20 20:56N 50°50' W 000°13'0 0.0
2017-Apr-20 20:29N 50°50' W 000°13'0 0.0
2017-Apr-20 19:59N 50°50' W 000°13'0 0.0
2017-Apr-20 19:29N 50°50' W 000°13'0 0.0
2017-Apr-20 18:56N 50°50' W 000°13'0 0.0
2017-Apr-20 18:26N 50°50' W 000°13'0 0.0
2017-Apr-20 17:59N 50°50' W 000°13'0 0.0
2017-Apr-20 17:26N 50°50' W 000°13'0 0.0
2017-Apr-20 16:59N 50°50' W 000°13'0 0.0
2017-Apr-20 16:29N 50°50' W 000°13'0 0.0
2017-Apr-20 15:53N 50°50' W 000°13'0 0.0
2017-Apr-20 15:29N 50°50' W 000°13'0 0.0
2017-Apr-20 14:59N 50°50' W 000°13'0 0.0
2017-Apr-20 14:26N 50°50' W 000°13'0 0.0
2017-Apr-20 13:29N 50°50' W 000°13'0 0.0
2017-Apr-20 12:59N 50°50' W 000°13'0 0.0
2017-Apr-20 12:23N 50°50' W 000°13'0 0.0
2017-Apr-20 11:59N 50°50' W 000°13'0 0.0
2017-Apr-20 11:29N 50°50' W 000°13'0 0.0
2017-Apr-20 10:59N 50°50' W 000°13'0 0.0
2017-Apr-20 10:23N 50°50' W 000°13'0 0.0
2017-Apr-20 09:59N 50°50' W 000°13'0 0.0
2017-Apr-20 09:26N 50°50' W 000°13'0 0.0
2017-Apr-20 08:59N 50°50' W 000°13'0 0.0
2017-Apr-20 08:23N 50°50' W 000°13'0 0.0
2017-Apr-20 07:53N 50°50' W 000°13'0 0.0
2017-Apr-20 07:29N 50°50' W 000°13'0 0.0
2017-Apr-20 06:59N 50°50' W 000°13'0 0.0
2017-Apr-20 06:23N 50°50' W 000°13'0 0.0
2017-Apr-20 05:59N 50°50' W 000°13'0 0.0
2017-Apr-20 05:29N 50°50' W 000°13'0 0.0
2017-Apr-20 04:47N 50°50' W 000°13'0 0.0
2017-Apr-20 04:26N 50°50' W 000°13'0 0.0
2017-Apr-20 03:59N 50°50' W 000°13'0 0.0
2017-Apr-20 03:29N 50°50' W 000°13'0 0.0
2017-Apr-20 02:59N 50°50' W 000°13'0 0.0
2017-Apr-20 02:29N 50°50' W 000°13'0 0.0
2017-Apr-20 01:59N 50°50' W 000°13'0 0.0
2017-Apr-20 01:29N 50°50' W 000°13'0 0.0
2017-Apr-20 00:59N 50°50' W 000°13'0 0.0
2017-Apr-20 00:29N 50°50' W 000°13'0 0.0
2017-Apr-19 23:56N 50°50' W 000°13'0 0.0
2017-Apr-19 23:29N 50°50' W 000°13'0 0.0
2017-Apr-19 22:59N 50°50' W 000°13'0 0.0
2017-Apr-19 22:26N 50°50' W 000°13'0 0.0
2017-Apr-19 21:59N 50°50' W 000°13'0 0.0
2017-Apr-19 21:26N 50°50' W 000°13'0 0.0
2017-Apr-19 20:56N 50°50' W 000°13'0 0.0
2017-Apr-19 20:23N 50°50' W 000°13'0 0.0
2017-Apr-19 19:59N 50°50' W 000°13'0 0.0
2017-Apr-19 19:29N 50°50' W 000°13'0 0.0
2017-Apr-19 18:59N 50°50' W 000°13'0 0.0
2017-Apr-19 18:29N 50°50' W 000°13'0 0.0
2017-Apr-19 17:59N 50°50' W 000°13'0 0.0
2017-Apr-19 17:30N 50°50' W 000°13'0 0.0
2017-Apr-19 17:01N 50°50' W 000°13'0 0.6
2017-Apr-19 16:31N 50°50' W 000°13'1 1.5
2017-Apr-19 16:01N 50°50' W 000°14'0 0.5
2017-Apr-19 15:31N 50°50' W 000°15'3 5.3
2017-Apr-19 15:00N 50°47' W 000°13'510.5
2017-Apr-19 14:31N 50°45' W 000°05'1110.9
2017-Apr-19 13:30N 50°43' E 000°12'5 8.4
2017-Apr-19 12:58N 50°43' E 000°19'3310.2
2017-Apr-19 09:41N 50°55' E 001°08'313.8
2017-Apr-19 09:26N 50°57' E 001°12'613.7
2017-Apr-19 09:00N 51°01' E 001°20'713.4
2017-Apr-19 08:31N 51°05' E 001°27'612.7
2017-Apr-19 08:00N 51°09' E 001°35'612.0
2017-Apr-19 07:30N 51°15' E 001°38'611.8
2017-Apr-19 07:01N 51°20' E 001°41'611.5
2017-Apr-19 06:31N 51°26' E 001°44'611.8
2017-Apr-19 06:00N 51°32' E 001°45'612.2
2017-Apr-19 05:31N 51°38' E 001°45'612.3
2017-Apr-19 05:00N 51°44' E 001°44'612.5
2017-Apr-19 04:31N 51°50' E 001°44'612.9
2017-Apr-19 04:01N 51°56' E 001°45'713.2
2017-Apr-19 03:30N 52°03' E 001°46'713.4
2017-Apr-19 03:00N 52°10' E 001°47'2313.9
2017-Apr-19 01:22N 52°32' E 001°51'714.3
2017-Apr-19 00:54N 52°39' E 001°51'614.6
2017-Apr-19 00:30N 52°44' E 001°47'714.3
2017-Apr-19 00:00N 52°50' E 001°39'714.1
2017-Apr-18 23:30N 52°55' E 001°31'713.4
2017-Apr-18 23:00N 52°58' E 001°22'713.8
2017-Apr-18 22:31N 53°01' E 001°11'5012.5
2017-Apr-18 18:28N 53°33' E 000°07'510.2
2017-Apr-18 18:00N 53°35' W 000°01'510.7
2017-Apr-18 17:31N 53°38' W 000°09'4 8.8
2017-Apr-18 17:01N 53°41' W 000°13'4 7.7
2017-Apr-18 16:30N 53°44' W 000°16'0 0.9
2017-Apr-18 16:00N 53°45' W 000°16'0 0.0
2017-Apr-18 15:30N 53°45' W 000°16'0 0.0
2017-Apr-18 15:00N 53°45' W 000°16'0 0.0
2017-Apr-18 14:30N 53°45' W 000°16'0 0.0
2017-Apr-18 13:31N 53°45' W 000°16'0 0.0
2017-Apr-18 13:00N 53°45' W 000°16'0 0.0
2017-Apr-18 12:30N 53°45' W 000°16'0 0.0
2017-Apr-18 12:00N 53°45' W 000°16'0 0.0
2017-Apr-18 11:30N 53°45' W 000°16'0 0.0
2017-Apr-18 11:01N 53°45' W 000°16'0 0.0
2017-Apr-18 10:30N 53°45' W 000°16'0 0.0
2017-Apr-18 10:00N 53°45' W 000°16'0 0.0
2017-Apr-18 09:30N 53°45' W 000°16'0 0.0
2017-Apr-18 09:00N 53°45' W 000°16'0 0.0
2017-Apr-18 08:30N 53°45' W 000°16'0 0.0
2017-Apr-18 08:00N 53°45' W 000°16'0 0.0
2017-Apr-18 07:30N 53°45' W 000°16'0 0.0
2017-Apr-18 07:00N 53°45' W 000°16'0 0.0
2017-Apr-18 06:31N 53°45' W 000°16'0 0.0
2017-Apr-18 06:00N 53°45' W 000°16'0 0.6
2017-Apr-18 05:30N 53°45' W 000°16'0 0.9
2017-Apr-18 05:00N 53°44' W 000°17'4 8.3
2017-Apr-18 04:30N 53°41' W 000°13'4 8.5
2017-Apr-18 04:00N 53°38' W 000°08'43410.2
2017-Apr-16 09:27N 57°45' E 010°25'511.7
2017-Apr-16 09:00N 57°47' E 010°34'611.9
2017-Apr-16 08:30N 57°47' E 010°45'612.5
2017-Apr-16 08:00N 57°44' E 010°56'613.0
2017-Apr-16 07:31N 57°39' E 011°04'713.1
2017-Apr-16 07:01N 57°35' E 011°13'713.0
2017-Apr-16 06:30N 57°30' E 011°22'612.9
2017-Apr-16 06:00N 57°25' E 011°28'612.8
2017-Apr-16 05:31N 57°19' E 011°33'713.1
2017-Apr-16 04:59N 57°12' E 011°37'6512.8
2017-Apr-15 23:56N 56°14' E 012°27'512.8
2017-Apr-15 23:31N 56°09' E 012°31'714.2
2017-Apr-15 23:01N 56°03' E 012°39'713.6
2017-Apr-15 22:30N 55°57' E 012°43'713.5
2017-Apr-15 22:00N 55°50' E 012°44'612.8
2017-Apr-15 21:30N 55°44' E 012°41'612.7
2017-Apr-15 21:00N 55°38' E 012°42'612.1
2017-Apr-15 20:30N 55°32' E 012°42'612.2
2017-Apr-15 20:00N 55°26' E 012°42'612.3
2017-Apr-15 19:30N 55°20' E 012°40'711.8
2017-Apr-15 18:53N 55°16' E 012°51'2012.1
2017-Apr-15 17:14N 55°15' E 013°27'312.2
2017-Apr-15 16:59N 55°14' E 013°32'612.5
2017-Apr-15 16:30N 55°14' E 013°43'612.5
2017-Apr-15 16:00N 55°14' E 013°53'612.4
2017-Apr-15 15:29N 55°14' E 014°04'612.4
2017-Apr-15 15:00N 55°14' E 014°15'1312.9
2017-Apr-15 14:00N 55°24' E 014°29'713.0
2017-Apr-15 13:27N 55°29' E 014°39'613.1
2017-Apr-15 13:00N 55°32' E 014°47'713.2
2017-Apr-15 12:30N 55°35' E 014°58'713.2
2017-Apr-15 11:59N 55°38' E 015°08'27812.5
2017-Apr-14 13:47N 59°33' E 019°44'  
Track history (hours):
 
Tides and Currents Weather Stations Pressure Air Temp Water Temp Dewpoint Dewpoint Depression Visibility Wind Speed Wind Dir Waves Ship Positions

Lammy

Last reported at 2017-Apr-24 13:28 UTC. Time now 2017-Apr-25 14:33 UTC.
Position N 55°37' E 015°24'.

Length 95 m; draft 4.1 m.

Type: Cargo ship. MMSI: 245391000.

Date/timePositionNaut miles runAvg speedWind from/ knotsBaromVisibWave heightAir tempDewpointWater temp
2017-Apr-24 13:28N 55°37' E 015°24'511.6
2017-Apr-24 13:00N 55°34' E 015°16'711.8
2017-Apr-24 12:26N 55°31' E 015°06'511.7
2017-Apr-24 12:00N 55°28' E 014°58'611.8
2017-Apr-24 11:30N 55°25' E 014°49'611.7
2017-Apr-24 11:00N 55°23' E 014°40'611.9
2017-Apr-24 10:30N 55°18' E 014°33'611.7
2017-Apr-24 10:00N 55°14' E 014°27'611.6
2017-Apr-24 09:30N 55°09' E 014°20'612.2
2017-Apr-24 09:00N 55°05' E 014°13'611.8
2017-Apr-24 08:30N 55°01' E 014°05'611.4
2017-Apr-24 07:57N 54°58' E 013°55'4611.8
2017-Apr-24 04:01N 54°39' E 012°42'011.9
2017-Apr-24 04:00N 54°39' E 012°41'611.8
2017-Apr-24 03:30N 54°36' E 012°32'1511.8
2017-Apr-24 02:14N 54°27' E 012°13'511.1
2017-Apr-24 01:47N 54°25' E 012°05'312.0
2017-Apr-24 01:30N 54°25' E 011°59'612.4
2017-Apr-24 01:00N 54°25' E 011°48'712.4
2017-Apr-24 00:28N 54°27' E 011°38'612.4
2017-Apr-24 00:00N 54°30' E 011°29'612.2
2017-Apr-23 23:30N 54°32' E 011°19'612.3
2017-Apr-23 23:00N 54°34' E 011°09'612.0
2017-Apr-23 22:30N 54°34' E 010°59'611.7
2017-Apr-23 22:00N 54°33' E 010°49'611.8
2017-Apr-23 21:30N 54°32' E 010°39'53 5.7
2017-Apr-23 12:16N 54°06' E 009°20'2 8.5
2017-Apr-23 12:00N 54°03' E 009°19'4 8.7
2017-Apr-23 11:30N 53°59' E 009°17'4 8.6
2017-Apr-23 11:00N 53°56' E 009°13'3 6.5
2017-Apr-23 10:31N 53°54' E 009°09'0 0.0
2017-Apr-23 10:00N 53°54' E 009°09'0 0.0
2017-Apr-23 09:30N 53°54' E 009°09'0 0.8
2017-Apr-23 09:00N 53°53' E 009°08'2 3.8
2017-Apr-23 08:31N 53°53' E 009°05'0 0.4
2017-Apr-23 08:01N 53°53' E 009°06'510.6
2017-Apr-23 07:31N 53°51' E 008°57'714.8
2017-Apr-23 07:00N 53°51' E 008°45'815.4
2017-Apr-23 06:29N 53°58' E 008°36'613.1
2017-Apr-23 06:00N 53°59' E 008°25'25310.1
2017-Apr-22 04:50N 51°50' E 002°23'310.4
2017-Apr-22 04:30N 51°48' E 002°19'510.4
2017-Apr-22 03:59N 51°44' E 002°13'510.4
2017-Apr-22 03:30N 51°40' E 002°07'510.6
2017-Apr-22 03:00N 51°37' E 002°02'510.8
2017-Apr-22 02:30N 51°33' E 001°56'611.4
2017-Apr-22 02:00N 51°28' E 001°49'611.6
2017-Apr-22 01:30N 51°23' E 001°45'611.7
2017-Apr-22 01:00N 51°18' E 001°40'611.7
2017-Apr-22 00:31N 51°13' E 001°36'611.7
2017-Apr-22 00:00N 51°08' E 001°30'612.0
2017-Apr-21 23:30N 51°05' E 001°23'612.2
2017-Apr-21 23:00N 51°01' E 001°15'612.2
2017-Apr-21 22:29N 50°57' E 001°07'612.0
2017-Apr-21 22:00N 50°53' E 001°00'612.0
2017-Apr-21 21:30N 50°50' E 000°52'611.9
2017-Apr-21 21:00N 50°47' E 000°44'611.8
2017-Apr-21 20:30N 50°43' E 000°37'611.7
2017-Apr-21 20:00N 50°42' E 000°28'611.9
2017-Apr-21 19:30N 50°43' E 000°18'611.9
2017-Apr-21 19:00N 50°43' E 000°09'612.2
2017-Apr-21 18:30N 50°45' W 000°01'612.3
2017-Apr-21 18:00N 50°46' W 000°10'5 9.1
2017-Apr-21 17:30N 50°50' W 000°15'0 0.8
2017-Apr-21 17:00N 50°50' W 000°14'1 1.7
2017-Apr-21 16:29N 50°50' W 000°13'0 0.0
2017-Apr-21 15:59N 50°50' W 000°13'0 0.0
2017-Apr-21 15:29N 50°50' W 000°13'0 0.0
2017-Apr-21 14:56N 50°50' W 000°13'0 0.0
2017-Apr-21 14:26N 50°50' W 000°13'0 0.0
2017-Apr-21 13:29N 50°50' W 000°13'0 0.0
2017-Apr-21 12:59N 50°50' W 000°13'0 0.0
2017-Apr-21 12:29N 50°50' W 000°13'0 0.0
2017-Apr-21 11:50N 50°50' W 000°13'0 0.0
2017-Apr-21 11:26N 50°50' W 000°13'0 0.0
2017-Apr-21 10:59N 50°50' W 000°13'0 0.0
2017-Apr-21 10:26N 50°50' W 000°13'0 0.0
2017-Apr-21 09:56N 50°50' W 000°13'0 0.0
2017-Apr-21 09:26N 50°50' W 000°13'0 0.0
2017-Apr-21 08:59N 50°50' W 000°13'0 0.0
2017-Apr-21 08:29N 50°50' W 000°13'0 0.0
2017-Apr-21 07:47N 50°50' W 000°13'0 0.0
2017-Apr-21 07:29N 50°50' W 000°13'0 0.0
2017-Apr-21 06:59N 50°50' W 000°13'0 0.0
2017-Apr-21 06:26N 50°50' W 000°13'0 0.0
2017-Apr-21 05:59N 50°50' W 000°13'0 0.0
2017-Apr-21 05:29N 50°50' W 000°13'0 0.0
2017-Apr-21 04:59N 50°50' W 000°13'0 0.0
2017-Apr-21 04:29N 50°50' W 000°13'0 0.0
2017-Apr-21 03:56N 50°50' W 000°13'0 0.0
2017-Apr-21 03:26N 50°50' W 000°13'0 0.0
2017-Apr-21 02:50N 50°50' W 000°13'0 0.0
2017-Apr-21 02:29N 50°50' W 000°13'0 0.0
2017-Apr-21 01:56N 50°50' W 000°13'0 0.0
2017-Apr-21 01:29N 50°50' W 000°13'0 0.0
2017-Apr-21 00:59N 50°50' W 000°13'0 0.0
2017-Apr-21 00:26N 50°50' W 000°13'0 0.0
2017-Apr-20 23:59N 50°50' W 000°13'0 0.0
2017-Apr-20 23:23N 50°50' W 000°13'0 0.0
2017-Apr-20 22:59N 50°50' W 000°13'0 0.0
2017-Apr-20 22:26N 50°50' W 000°13'0 0.0
2017-Apr-20 21:59N 50°50' W 000°13'0 0.0
2017-Apr-20 21:23N 50°50' W 000°13'0 0.0
2017-Apr-20 20:56N 50°50' W 000°13'0 0.0
2017-Apr-20 20:29N 50°50' W 000°13'0 0.0
2017-Apr-20 19:59N 50°50' W 000°13'0 0.0
2017-Apr-20 19:29N 50°50' W 000°13'0 0.0
2017-Apr-20 18:56N 50°50' W 000°13'0 0.0
2017-Apr-20 18:26N 50°50' W 000°13'0 0.0
2017-Apr-20 17:59N 50°50' W 000°13'0 0.0
2017-Apr-20 17:26N 50°50' W 000°13'0 0.0
2017-Apr-20 16:59N 50°50' W 000°13'0 0.0
2017-Apr-20 16:29N 50°50' W 000°13'0 0.0
2017-Apr-20 15:53N 50°50' W 000°13'0 0.0
2017-Apr-20 15:29N 50°50' W 000°13'0 0.0
2017-Apr-20 14:59N 50°50' W 000°13'0 0.0
2017-Apr-20 14:26N 50°50' W 000°13'0 0.0
2017-Apr-20 13:29N 50°50' W 000°13'0 0.0
2017-Apr-20 12:59N 50°50' W 000°13'0 0.0
2017-Apr-20 12:23N 50°50' W 000°13'0 0.0
2017-Apr-20 11:59N 50°50' W 000°13'0 0.0
2017-Apr-20 11:29N 50°50' W 000°13'0 0.0
2017-Apr-20 10:59N 50°50' W 000°13'0 0.0
2017-Apr-20 10:23N 50°50' W 000°13'0 0.0
2017-Apr-20 09:59N 50°50' W 000°13'0 0.0
2017-Apr-20 09:26N 50°50' W 000°13'0 0.0
2017-Apr-20 08:59N 50°50' W 000°13'0 0.0
2017-Apr-20 08:23N 50°50' W 000°13'0 0.0
2017-Apr-20 07:53N 50°50' W 000°13'0 0.0
2017-Apr-20 07:29N 50°50' W 000°13'0 0.0
2017-Apr-20 06:59N 50°50' W 000°13'0 0.0
2017-Apr-20 06:23N 50°50' W 000°13'0 0.0
2017-Apr-20 05:59N 50°50' W 000°13'0 0.0
2017-Apr-20 05:29N 50°50' W 000°13'0 0.0
2017-Apr-20 04:47N 50°50' W 000°13'0 0.0
2017-Apr-20 04:26N 50°50' W 000°13'0 0.0
2017-Apr-20 03:59N 50°50' W 000°13'0 0.0
2017-Apr-20 03:29N 50°50' W 000°13'0 0.0
2017-Apr-20 02:59N 50°50' W 000°13'0 0.0
2017-Apr-20 02:29N 50°50' W 000°13'0 0.0
2017-Apr-20 01:59N 50°50' W 000°13'0 0.0
2017-Apr-20 01:29N 50°50' W 000°13'0 0.0
2017-Apr-20 00:59N 50°50' W 000°13'0 0.0
2017-Apr-20 00:29N 50°50' W 000°13'0 0.0
2017-Apr-19 23:56N 50°50' W 000°13'0 0.0
2017-Apr-19 23:29N 50°50' W 000°13'0 0.0
2017-Apr-19 22:59N 50°50' W 000°13'0 0.0
2017-Apr-19 22:26N 50°50' W 000°13'0 0.0
2017-Apr-19 21:59N 50°50' W 000°13'0 0.0
2017-Apr-19 21:26N 50°50' W 000°13'0 0.0
2017-Apr-19 20:56N 50°50' W 000°13'0 0.0
2017-Apr-19 20:23N 50°50' W 000°13'0 0.0
2017-Apr-19 19:59N 50°50' W 000°13'0 0.0
2017-Apr-19 19:29N 50°50' W 000°13'0 0.0
2017-Apr-19 18:59N 50°50' W 000°13'0 0.0
2017-Apr-19 18:29N 50°50' W 000°13'0 0.0
2017-Apr-19 17:59N 50°50' W 000°13'0 0.0
2017-Apr-19 17:30N 50°50' W 000°13'0 0.0
2017-Apr-19 17:01N 50°50' W 000°13'0 0.6
2017-Apr-19 16:31N 50°50' W 000°13'1 1.5
2017-Apr-19 16:01N 50°50' W 000°14'0 0.5
2017-Apr-19 15:31N 50°50' W 000°15'3 5.3
2017-Apr-19 15:00N 50°47' W 000°13'510.5
2017-Apr-19 14:31N 50°45' W 000°05'1110.9
2017-Apr-19 13:30N 50°43' E 000°12'5 8.4
2017-Apr-19 12:58N 50°43' E 000°19'3310.2
2017-Apr-19 09:41N 50°55' E 001°08'313.8
2017-Apr-19 09:26N 50°57' E 001°12'613.7
2017-Apr-19 09:00N 51°01' E 001°20'713.4
2017-Apr-19 08:31N 51°05' E 001°27'612.7
2017-Apr-19 08:00N 51°09' E 001°35'612.0
2017-Apr-19 07:30N 51°15' E 001°38'611.8
2017-Apr-19 07:01N 51°20' E 001°41'611.5
2017-Apr-19 06:31N 51°26' E 001°44'611.8
2017-Apr-19 06:00N 51°32' E 001°45'612.2
2017-Apr-19 05:31N 51°38' E 001°45'612.3
2017-Apr-19 05:00N 51°44' E 001°44'612.5
2017-Apr-19 04:31N 51°50' E 001°44'612.9
2017-Apr-19 04:01N 51°56' E 001°45'713.2
2017-Apr-19 03:30N 52°03' E 001°46'713.4
2017-Apr-19 03:00N 52°10' E 001°47'2313.9
2017-Apr-19 01:22N 52°32' E 001°51'714.3
2017-Apr-19 00:54N 52°39' E 001°51'614.6
2017-Apr-19 00:30N 52°44' E 001°47'714.3
2017-Apr-19 00:00N 52°50' E 001°39'714.1
2017-Apr-18 23:30N 52°55' E 001°31'713.4
2017-Apr-18 23:00N 52°58' E 001°22'713.8
2017-Apr-18 22:31N 53°01' E 001°11'5012.5
2017-Apr-18 18:28N 53°33' E 000°07'510.2
2017-Apr-18 18:00N 53°35' W 000°01'510.7
2017-Apr-18 17:31N 53°38' W 000°09'4 8.8
2017-Apr-18 17:01N 53°41' W 000°13'4 7.7
2017-Apr-18 16:30N 53°44' W 000°16'0 0.9
2017-Apr-18 16:00N 53°45' W 000°16'0 0.0
2017-Apr-18 15:30N 53°45' W 000°16'0 0.0
2017-Apr-18 15:00N 53°45' W 000°16'0 0.0
2017-Apr-18 14:30N 53°45' W 000°16'0 0.0
2017-Apr-18 13:31N 53°45' W 000°16'0 0.0
2017-Apr-18 13:00N 53°45' W 000°16'0 0.0
2017-Apr-18 12:30N 53°45' W 000°16'0 0.0
2017-Apr-18 12:00N 53°45' W 000°16'0 0.0
2017-Apr-18 11:30N 53°45' W 000°16'0 0.0
2017-Apr-18 11:01N 53°45' W 000°16'0 0.0
2017-Apr-18 10:30N 53°45' W 000°16'0 0.0
2017-Apr-18 10:00N 53°45' W 000°16'0 0.0
2017-Apr-18 09:30N 53°45' W 000°16'0 0.0
2017-Apr-18 09:00N 53°45' W 000°16'0 0.0
2017-Apr-18 08:30N 53°45' W 000°16'0 0.0
2017-Apr-18 08:00N 53°45' W 000°16'0 0.0
2017-Apr-18 07:30N 53°45' W 000°16'0 0.0
2017-Apr-18 07:00N 53°45' W 000°16'0 0.0
2017-Apr-18 06:31N 53°45' W 000°16'0 0.0
2017-Apr-18 06:00N 53°45' W 000°16'0 0.6
2017-Apr-18 05:30N 53°45' W 000°16'0 0.9
2017-Apr-18 05:00N 53°44' W 000°17'4 8.3
2017-Apr-18 04:30N 53°41' W 000°13'4 8.5
2017-Apr-18 04:00N 53°38' W 000°08'43410.2
2017-Apr-16 09:27N 57°45' E 010°25'511.7
2017-Apr-16 09:00N 57°47' E 010°34'611.9
2017-Apr-16 08:30N 57°47' E 010°45'612.5
2017-Apr-16 08:00N 57°44' E 010°56'613.0
2017-Apr-16 07:31N 57°39' E 011°04'713.1
2017-Apr-16 07:01N 57°35' E 011°13'713.0
2017-Apr-16 06:30N 57°30' E 011°22'612.9
2017-Apr-16 06:00N 57°25' E 011°28'612.8
2017-Apr-16 05:31N 57°19' E 011°33'713.1
2017-Apr-16 04:59N 57°12' E 011°37'6512.8
2017-Apr-15 23:56N 56°14' E 012°27'512.8
2017-Apr-15 23:31N 56°09' E 012°31'714.2
2017-Apr-15 23:01N 56°03' E 012°39'713.6
2017-Apr-15 22:30N 55°57' E 012°43'713.5
2017-Apr-15 22:00N 55°50' E 012°44'612.8
2017-Apr-15 21:30N 55°44' E 012°41'612.7
2017-Apr-15 21:00N 55°38' E 012°42'612.1
2017-Apr-15 20:30N 55°32' E 012°42'612.2
2017-Apr-15 20:00N 55°26' E 012°42'612.3
2017-Apr-15 19:30N 55°20' E 012°40'711.8
2017-Apr-15 18:53N 55°16' E 012°51'2012.1
2017-Apr-15 17:14N 55°15' E 013°27'312.2
2017-Apr-15 16:59N 55°14' E 013°32'612.5
2017-Apr-15 16:30N 55°14' E 013°43'612.5
2017-Apr-15 16:00N 55°14' E 013°53'612.4
2017-Apr-15 15:29N 55°14' E 014°04'612.4
2017-Apr-15 15:00N 55°14' E 014°15'1312.9
2017-Apr-15 14:00N 55°24' E 014°29'713.0
2017-Apr-15 13:27N 55°29' E 014°39'613.1
2017-Apr-15 13:00N 55°32' E 014°47'713.2
2017-Apr-15 12:30N 55°35' E 014°58'713.2
2017-Apr-15 11:59N 55°38' E 015°08'27812.5
2017-Apr-14 13:47N 59°33' E 019°44'  

Dump ship's entire track history